createdAt,value
2024-03-01T00:05:03.800Z,99535.09
2024-03-01T00:10:08.941Z,99533.66
2024-03-01T00:15:12.034Z,99525.03
2024-03-01T00:20:16.403Z,99519.22
2024-03-01T00:25:20.160Z,99514.13
2024-03-01T00:30:23.074Z,99510.97
2024-03-01T00:35:27.358Z,99499.97
2024-03-01T00:40:30.193Z,99500.06
2024-03-01T00:45:33.264Z,99504.97
2024-03-01T00:50:37.473Z,99492.94
2024-03-01T00:55:40.291Z,99487.84
2024-03-01T01:00:43.372Z,99497.00
2024-03-01T01:05:47.545Z,99498.06
2024-03-01T01:10:50.468Z,99484.13
2024-03-01T01:15:53.422Z,99479.88
2024-03-01T01:20:57.737Z,99476.50
2024-03-01T01:26:00.590Z,99474.19
2024-03-01T01:31:03.517Z,99474.44
2024-03-01T01:36:08.094Z,99466.66
2024-03-01T01:41:11.029Z,99463.25
2024-03-01T01:46:14.051Z,99460.00
2024-03-01T01:51:19.055Z,99451.28
2024-03-01T01:56:21.932Z,99448.81
2024-03-01T02:01:24.910Z,99448.25
2024-03-01T02:06:30.381Z,99441.19
2024-03-01T02:11:35.273Z,99438.91
2024-03-01T02:16:38.304Z,99420.28
2024-03-01T02:21:45.127Z,99409.84
2024-03-01T02:26:49.469Z,99404.84
2024-03-01T02:31:52.283Z,99409.25
2024-03-01T02:36:55.129Z,99388.09
2024-03-01T02:41:59.710Z,99382.03
2024-03-01T02:47:02.568Z,99387.38
2024-03-01T02:52:05.597Z,99387.66
2024-03-01T02:57:10.747Z,99392.38
2024-03-01T03:02:13.507Z,99384.63
2024-03-01T03:07:16.598Z,99390.09
2024-03-01T03:12:20.762Z,99384.16
2024-03-01T03:17:23.956Z,99374.56
2024-03-01T03:22:26.784Z,99369.34
2024-03-01T03:27:30.956Z,99373.13
2024-03-01T03:32:33.805Z,99360.00
2024-03-01T03:37:36.797Z,99357.47
2024-03-01T03:42:41.193Z,99366.59
2024-03-01T03:47:43.948Z,99357.72
2024-03-01T03:52:46.741Z,99366.00
2024-03-01T03:57:50.944Z,99358.97
2024-03-01T04:02:53.860Z,99356.66
2024-03-01T04:07:56.644Z,99353.41
2024-03-01T04:13:01.288Z,99379.00
2024-03-01T04:18:04.374Z,99378.16
2024-03-01T04:23:07.232Z,99375.50
2024-03-01T04:28:11.648Z,99382.88
2024-03-01T04:33:14.569Z,99388.22
2024-03-01T04:38:17.540Z,99388.47
2024-03-01T04:43:22.118Z,99395.78
2024-03-01T04:48:25.128Z,99401.13
2024-03-01T04:53:27.932Z,99416.44
2024-03-01T04:58:32.173Z,99405.75
2024-03-01T05:03:35.040Z,99409.41
2024-03-01T05:08:37.780Z,99411.31
2024-03-01T05:13:42.354Z,99415.81
2024-03-01T05:18:45.271Z,99408.66
2024-03-01T05:23:48.133Z,99422.97
2024-03-01T05:28:52.497Z,99422.97
2024-03-01T05:33:55.342Z,99420.44
2024-03-01T05:38:58.154Z,99431.25
2024-03-01T05:50:50.108Z,99444.59
2024-03-01T05:55:53.114Z,99452.88
2024-03-01T06:00:56.410Z,99448.50
2024-03-01T06:06:02.000Z,99458.34
2024-03-01T06:11:06.054Z,99453.09
2024-03-01T06:16:09.482Z,99476.28
2024-03-01T06:21:21.640Z,99480.06
2024-03-01T06:26:24.523Z,99480.91
2024-03-01T06:31:27.461Z,99480.91
2024-03-01T06:36:31.683Z,99489.78
2024-03-01T06:41:34.548Z,99490.63
2024-03-01T06:46:37.508Z,99493.28
2024-03-01T06:51:41.717Z,99488.69
2024-03-01T06:56:44.559Z,99493.16
2024-03-01T07:01:47.496Z,99488.59
2024-03-01T07:06:51.856Z,99480.56
2024-03-01T07:11:54.735Z,99480.31
2024-03-01T07:16:57.788Z,99472.19
2024-03-01T07:22:02.139Z,99474.84
2024-03-01T07:27:05.454Z,99474.84
2024-03-01T07:32:08.672Z,99471.91
2024-03-01T07:37:13.346Z,99467.19
2024-03-01T07:42:16.227Z,99472.41
2024-03-01T07:47:19.097Z,99472.28
2024-03-01T07:52:23.320Z,99463.56
2024-03-01T07:57:26.163Z,99475.78
2024-03-01T08:02:28.956Z,99491.03
2024-03-01T08:07:33.230Z,99492.44
2024-03-01T08:12:36.042Z,99485.84
2024-03-01T08:17:39.099Z,99484.56
2024-03-01T08:22:43.450Z,99478.41
2024-03-01T08:27:46.296Z,99468.22
2024-03-01T08:32:49.841Z,99471.34
2024-03-01T08:37:54.019Z,99467.22
2024-03-01T08:42:56.904Z,99465.25
2024-03-01T08:48:14.604Z,99472.28
2024-03-01T08:54:00.517Z,99472.50
2024-03-01T08:59:09.718Z,99456.56
2024-03-01T09:04:13.978Z,99453.56
2024-03-01T09:09:23.038Z,99451.94
2024-03-01T09:14:30.680Z,99460.44
2024-03-01T09:19:37.736Z,99457.00
2024-03-01T09:24:41.892Z,99470.38
2024-03-01T09:29:47.770Z,99470.03
2024-03-01T09:34:50.675Z,99459.22
2024-03-01T09:39:54.985Z,99453.72
2024-03-01T09:45:18.747Z,99447.00
2024-03-01T09:50:27.491Z,99452.50
2024-03-01T09:55:34.966Z,99446.69
2024-03-01T10:00:40.402Z,99449.81
2024-03-01T10:05:55.625Z,99464.78
2024-03-01T10:11:19.038Z,99475.94
2024-03-01T10:16:26.961Z,99479.72
2024-03-01T10:21:31.977Z,99474.84
2024-03-01T10:26:36.155Z,99479.00
2024-03-01T10:31:43.188Z,99464.66
2024-03-01T10:36:47.025Z,99463.91
2024-03-01T10:41:59.538Z,99469.00
2024-03-01T10:47:07.399Z,99466.22
2024-03-01T10:52:12.962Z,99464.97
2024-03-01T10:57:18.550Z,99463.25
2024-03-01T11:02:24.783Z,99452.91
2024-03-01T11:07:30.416Z,99460.66
2024-03-01T11:12:36.797Z,99456.16
2024-03-01T11:17:39.923Z,99472.00
2024-03-01T11:22:44.794Z,99466.38
2024-03-01T11:27:50.714Z,99466.84
2024-03-01T11:32:56.445Z,99459.25
2024-03-01T11:38:02.427Z,99453.41
2024-03-01T11:43:12.763Z,99455.66
2024-03-01T11:48:26.976Z,99454.69
2024-03-01T11:53:48.901Z,99450.78
2024-03-01T11:58:55.973Z,99443.47
2024-03-01T12:04:20.651Z,99437.13
2024-03-01T12:09:28.299Z,99438.56
2024-03-01T12:14:34.046Z,99426.16
2024-03-01T12:19:41.483Z,99421.66
2024-03-01T12:24:44.302Z,99423.94
2024-03-01T12:29:58.612Z,99423.94
2024-03-01T12:35:11.243Z,99430.84
2024-03-01T12:40:19.028Z,99430.72
2024-03-01T12:45:28.846Z,99443.03
2024-03-01T12:50:39.095Z,99429.06
2024-03-01T12:55:48.889Z,99435.03
2024-03-01T13:00:57.424Z,99455.63
2024-03-01T13:06:00.322Z,99451.94
2024-03-01T13:11:05.120Z,99461.56
2024-03-01T13:16:11.979Z,99450.88
2024-03-01T13:21:18.126Z,99443.91
2024-03-01T13:26:26.521Z,99446.72
2024-03-01T13:31:37.157Z,99437.97
2024-03-01T13:36:41.743Z,99451.47
2024-03-01T13:41:50.872Z,99452.47
2024-03-01T13:46:58.600Z,99433.00
2024-03-01T13:52:01.420Z,99438.50
2024-03-01T13:57:05.882Z,99427.94
2024-03-01T14:02:12.382Z,99443.25
2024-03-01T14:07:16.223Z,99441.69
2024-03-01T14:12:19.035Z,99439.03
2024-03-01T14:17:24.270Z,99438.31
2024-03-01T14:22:27.144Z,99431.69
2024-03-01T14:27:30.877Z,99425.38
2024-03-01T14:32:35.259Z,99420.84
2024-03-01T14:37:38.227Z,99416.75
2024-03-01T14:42:42.132Z,99415.06
2024-03-01T14:47:55.321Z,99413.50
2024-03-01T14:53:03.265Z,99406.44
2024-03-01T14:58:09.929Z,99415.44
2024-03-01T15:03:15.236Z,99415.72
2024-03-01T15:08:20.658Z,99415.84
2024-03-01T15:13:24.108Z,99407.25
2024-03-01T15:18:28.398Z,99408.19
2024-03-01T15:23:38.991Z,99411.88
2024-03-01T15:28:42.836Z,99401.44
2024-03-01T15:33:48.631Z,99399.75
2024-03-01T15:38:51.483Z,99390.16
2024-03-01T15:43:54.336Z,99397.44
2024-03-01T15:48:58.657Z,99392.50
2024-03-01T15:54:01.490Z,99388.00
2024-03-01T15:59:06.796Z,99391.66
2024-03-01T16:04:11.244Z,99394.47
2024-03-01T16:09:14.012Z,99390.09
2024-03-01T16:14:16.769Z,99394.69
2024-03-01T16:19:21.492Z,99402.72
2024-03-01T16:24:24.309Z,99404.69
2024-03-01T16:29:27.117Z,99411.88
2024-03-01T16:34:31.529Z,99406.66
2024-03-01T16:39:35.517Z,99416.66
2024-03-01T16:44:42.339Z,99415.66
2024-03-01T16:49:46.641Z,99417.50
2024-03-01T16:54:49.548Z,99414.09
2024-03-01T16:59:52.305Z,99422.13
2024-03-01T17:04:56.689Z,99424.91
2024-03-01T17:10:00.038Z,99422.22
2024-03-01T17:15:03.982Z,99422.13
2024-03-01T17:20:10.056Z,99415.31
2024-03-01T17:25:12.839Z,99415.47
2024-03-01T17:30:16.221Z,99428.56
2024-03-01T17:35:22.242Z,99432.34
2024-03-01T17:40:26.028Z,99447.28
2024-03-01T17:45:29.228Z,99444.03
2024-03-01T17:50:33.352Z,99441.50
2024-03-01T17:55:36.321Z,99444.41
2024-03-01T18:00:39.293Z,99441.16
2024-03-01T18:05:43.583Z,99431.69
2024-03-01T18:10:46.445Z,99435.59
2024-03-01T18:15:49.396Z,99444.47
2024-03-01T18:20:54.400Z,99442.19
2024-03-01T18:25:57.402Z,99436.84
2024-03-01T18:31:02.456Z,99439.63
2024-03-01T18:36:07.521Z,99439.75
2024-03-01T18:41:10.590Z,99433.19
2024-03-01T18:46:13.628Z,99442.97
2024-03-01T18:51:17.858Z,99435.88
2024-03-01T18:56:21.585Z,99432.28
2024-03-01T19:01:24.635Z,99431.50
2024-03-01T19:06:28.916Z,99422.72
2024-03-01T19:11:31.933Z,99413.50
2024-03-01T19:16:35.162Z,99408.06
2024-03-01T19:21:39.422Z,99411.53
2024-03-01T19:26:42.242Z,99402.97
2024-03-01T19:31:45.167Z,99396.34
2024-03-01T19:36:49.580Z,99395.69
2024-03-01T19:41:53.892Z,99397.09
2024-03-01T19:46:58.492Z,99402.91
2024-03-01T19:52:02.669Z,99398.13
2024-03-01T19:57:06.001Z,99393.34
2024-03-01T20:02:09.009Z,99400.13
2024-03-01T20:07:13.311Z,99403.38
2024-03-01T20:12:16.278Z,99396.91
2024-03-01T20:17:19.099Z,99401.00
2024-03-01T20:22:23.807Z,99402.44
2024-03-01T20:27:26.786Z,99399.47
2024-03-01T20:32:29.940Z,99388.47
2024-03-01T20:37:34.337Z,99391.00
2024-03-01T20:42:37.234Z,99386.22
2024-03-01T20:47:40.047Z,99387.09
2024-03-01T20:52:44.337Z,99386.94
2024-03-01T20:57:47.273Z,99386.78
2024-03-01T21:09:49.723Z,99381.16
2024-03-01T21:14:53.203Z,99380.19
2024-03-01T21:19:56.079Z,99376.63
2024-03-01T21:25:00.298Z,99374.41
2024-03-01T21:30:03.180Z,99372.56
2024-03-01T21:35:07.861Z,99364.97
2024-03-01T21:40:21.118Z,99367.94
2024-03-01T21:45:23.989Z,99364.25
2024-03-01T21:50:26.860Z,99362.44
2024-03-01T21:55:31.117Z,99354.81
2024-03-01T22:00:34.045Z,99354.66
2024-03-01T22:05:36.927Z,99344.78
2024-03-01T22:10:41.135Z,99349.00
2024-03-01T22:15:44.248Z,99343.41
2024-03-01T22:20:47.153Z,99348.75
2024-03-01T22:25:51.304Z,99341.69
2024-03-01T22:30:54.882Z,99332.81
2024-03-01T22:35:57.788Z,99323.19
2024-03-01T22:41:02.722Z,99321.50
2024-03-01T22:46:06.048Z,99325.03
2024-03-01T22:51:09.821Z,99330.25
2024-03-01T22:56:19.555Z,99327.56
2024-03-01T23:01:25.064Z,99326.72
2024-03-01T23:06:28.325Z,99324.88
2024-03-01T23:11:42.106Z,99322.19
2024-03-01T23:16:44.908Z,99326.59
2024-03-01T23:21:47.701Z,99322.94
2024-03-01T23:26:52.170Z,99317.56
2024-03-01T23:31:55.024Z,99322.09
2024-03-01T23:37:00.033Z,99320.25
2024-03-01T23:42:05.012Z,99321.09
2024-03-01T23:47:08.260Z,99319.25
2024-03-01T23:52:11.429Z,99319.25
2024-03-01T23:57:15.660Z,99325.47
